sensor_id;sensor_type;location;lat;lon;timestamp;pressure;altitude;pressure_sealevel;temperature;humidity
25156;BME280;71253;51.496;7.606;2023-11-21T00:03:07;99609.03;;;5.42;100.00
25156;BME280;71253;51.496;7.606;2023-11-21T00:08:09;99618.50;;;5.44;100.00
25156;BME280;71253;51.496;7.606;2023-11-21T00:13:10;99626.22;;;5.47;100.00
25156;BME280;71253;51.496;7.606;2023-11-21T00:18:12;99630.47;;;5.44;100.00
25156;BME280;71253;51.496;7.606;2023-11-21T00:23:14;99620.31;;;5.51;100.00
25156;BME280;71253;51.496;7.606;2023-11-21T00:28:15;99626.22;;;5.46;100.00
25156;BME280;71253;51.496;7.606;2023-11-21T00:33:17;99624.50;;;5.45;100.00
25156;BME280;71253;51.496;7.606;2023-11-21T00:38:19;99634.00;;;5.52;100.00
25156;BME280;71253;51.496;7.606;2023-11-21T00:43:24;99639.19;;;5.57;100.00
25156;BME280;71253;51.496;7.606;2023-11-21T00:48:26;99645.25;;;5.63;100.00
25156;BME280;71253;51.496;7.606;2023-11-21T00:53:27;99635.94;;;5.68;100.00
25156;BME280;71253;51.496;7.606;2023-11-21T00:58:29;99633.50;;;5.79;100.00
25156;BME280;71253;51.496;7.606;2023-11-21T01:03:30;99642.13;;;5.86;100.00
25156;BME280;71253;51.496;7.606;2023-11-21T01:08:32;99644.69;;;5.83;100.00
25156;BME280;71253;51.496;7.606;2023-11-21T01:13:34;99652.38;;;5.83;100.00
25156;BME280;71253;51.496;7.606;2023-11-21T01:18:36;99653.41;;;5.94;100.00
25156;BME280;71253;51.496;7.606;2023-11-21T01:23:37;99655.13;;;5.95;100.00
25156;BME280;71253;51.496;7.606;2023-11-21T01:28:39;99656.59;;;5.77;100.00
25156;BME280;71253;51.496;7.606;2023-11-21T01:33:41;99656.47;;;5.68;100.00
25156;BME280;71253;51.496;7.606;2023-11-21T01:38:42;99659.91;;;5.70;100.00
25156;BME280;71253;51.496;7.606;2023-11-21T01:43:44;99664.94;;;5.61;100.00
25156;BME280;71253;51.496;7.606;2023-11-21T01:48:45;99668.22;;;5.52;100.00
25156;BME280;71253;51.496;7.606;2023-11-21T01:53:50;99669.84;;;5.49;100.00
25156;BME280;71253;51.496;7.606;2023-11-21T01:58:51;99658.72;;;5.48;100.00
25156;BME280;71253;51.496;7.606;2023-11-21T02:03:53;99663.91;;;5.50;100.00
25156;BME280;71253;51.496;7.606;2023-11-21T02:08:55;99680.13;;;5.49;100.00
25156;BME280;71253;51.496;7.606;2023-11-21T02:13:58;99674.91;;;5.43;100.00
25156;BME280;71253;51.496;7.606;2023-11-21T02:19:01;99683.38;;;5.37;100.00
25156;BME280;71253;51.496;7.606;2023-11-21T02:24:04;99688.38;;;5.28;100.00
25156;BME280;71253;51.496;7.606;2023-11-21T02:29:06;99702.00;;;5.25;100.00
25156;BME280;71253;51.496;7.606;2023-11-21T02:34:07;99707.16;;;5.27;100.00
25156;BME280;71253;51.496;7.606;2023-11-21T02:39:10;99714.00;;;5.26;100.00
25156;BME280;71253;51.496;7.606;2023-11-21T02:44:12;99714.06;;;5.31;100.00
25156;BME280;71253;51.496;7.606;2023-11-21T02:49:13;99702.94;;;5.31;100.00
25156;BME280;71253;51.496;7.606;2023-11-21T02:54:15;99703.78;;;5.30;100.00
25156;BME280;71253;51.496;7.606;2023-11-21T02:59:17;99703.97;;;5.42;100.00
25156;BME280;71253;51.496;7.606;2023-11-21T03:04:19;99709.16;;;5.45;100.00
25156;BME280;71253;51.496;7.606;2023-11-21T03:09:21;99712.75;;;5.54;100.00
25156;BME280;71253;51.496;7.606;2023-11-21T03:14:22;99713.59;;;5.55;100.00
25156;BME280;71253;51.496;7.606;2023-11-21T03:19:24;99734.25;;;5.63;100.00
25156;BME280;71253;51.496;7.606;2023-11-21T03:24:26;99729.16;;;5.66;100.00
25156;BME280;71253;51.496;7.606;2023-11-21T03:29:27;99736.03;;;5.70;100.00
25156;BME280;71253;51.496;7.606;2023-11-21T03:34:29;99736.91;;;5.70;100.00
25156;BME280;71253;51.496;7.606;2023-11-21T03:39:30;99741.31;;;5.77;100.00
25156;BME280;71253;51.496;7.606;2023-11-21T03:44:32;99747.31;;;5.79;100.00
25156;BME280;71253;51.496;7.606;2023-11-21T03:49:34;99751.59;;;5.79;100.00
25156;BME280;71253;51.496;7.606;2023-11-21T03:54:36;99756.63;;;5.73;100.00
25156;BME280;71253;51.496;7.606;2023-11-21T03:59:40;99765.97;;;5.66;100.00
25156;BME280;71253;51.496;7.606;2023-11-21T04:04:42;99777.00;;;5.62;100.00
25156;BME280;71253;51.496;7.606;2023-11-21T04:09:43;99781.38;;;5.68;100.00
25156;BME280;71253;51.496;7.606;2023-11-21T04:14:45;99798.50;;;5.70;100.00
25156;BME280;71253;51.496;7.606;2023-11-21T04:19:46;99794.31;;;5.75;100.00
25156;BME280;71253;51.496;7.606;2023-11-21T04:24:48;99793.59;;;5.83;100.00
25156;BME280;71253;51.496;7.606;2023-11-21T04:29:50;99795.34;;;5.87;100.00
25156;BME280;71253;51.496;7.606;2023-11-21T04:34:51;99806.50;;;5.87;100.00
25156;BME280;71253;51.496;7.606;2023-11-21T04:39:53;99810.06;;;5.95;100.00
25156;BME280;71253;51.496;7.606;2023-11-21T04:44:54;99807.59;;;6.03;100.00
25156;BME280;71253;51.496;7.606;2023-11-21T04:49:56;99806.78;;;6.05;100.00
25156;BME280;71253;51.496;7.606;2023-11-21T04:54:57;99807.81;;;6.15;100.00
25156;BME280;71253;51.496;7.606;2023-11-21T04:59:59;99808.66;;;6.16;100.00
25156;BME280;71253;51.496;7.606;2023-11-21T05:05:01;99813.91;;;6.25;100.00
25156;BME280;71253;51.496;7.606;2023-11-21T05:10:07;99816.47;;;6.23;100.00
25156;BME280;71253;51.496;7.606;2023-11-21T05:15:09;99818.97;;;6.19;100.00
25156;BME280;71253;51.496;7.606;2023-11-21T05:20:13;99823.00;;;6.03;100.00
25156;BME280;71253;51.496;7.606;2023-11-21T05:25:15;99820.19;;;5.88;100.00
25156;BME280;71253;51.496;7.606;2023-11-21T05:30:17;99839.63;;;5.72;100.00
25156;BME280;71253;51.496;7.606;2023-11-21T05:35:18;99846.91;;;5.47;100.00
25156;BME280;71253;51.496;7.606;2023-11-21T05:40:20;99858.75;;;5.39;100.00
25156;BME280;71253;51.496;7.606;2023-11-21T05:45:22;99858.84;;;5.45;100.00
25156;BME280;71253;51.496;7.606;2023-11-21T05:50:23;99855.63;;;5.57;100.00
25156;BME280;71253;51.496;7.606;2023-11-21T05:55:25;99866.94;;;5.67;100.00
25156;BME280;71253;51.496;7.606;2023-11-21T06:00:26;99866.78;;;5.59;100.00
25156;BME280;71253;51.496;7.606;2023-11-21T06:05:28;99885.47;;;5.50;100.00
25156;BME280;71253;51.496;7.606;2023-11-21T06:10:30;99891.38;;;5.48;100.00
25156;BME280;71253;51.496;7.606;2023-11-21T06:15:31;99899.19;;;5.54;100.00
25156;BME280;71253;51.496;7.606;2023-11-21T06:20:33;99905.44;;;5.67;100.00
25156;BME280;71253;51.496;7.606;2023-11-21T06:25:34;99910.78;;;5.79;100.00
25156;BME280;71253;51.496;7.606;2023-11-21T06:30:36;99913.44;;;5.87;100.00
25156;BME280;71253;51.496;7.606;2023-11-21T06:35:37;99912.66;;;5.88;100.00
25156;BME280;71253;51.496;7.606;2023-11-21T06:40:39;99921.22;;;5.90;100.00
25156;BME280;71253;51.496;7.606;2023-11-21T06:45:41;99926.50;;;5.96;100.00
25156;BME280;71253;51.496;7.606;2023-11-21T06:50:42;99935.69;;;5.85;100.00
25156;BME280;71253;51.496;7.606;2023-11-21T06:55:44;99939.03;;;5.80;100.00
25156;BME280;71253;51.496;7.606;2023-11-21T07:00:45;99952.63;;;5.75;100.00
25156;BME280;71253;51.496;7.606;2023-11-21T07:05:47;99960.41;;;5.78;100.00
25156;BME280;71253;51.496;7.606;2023-11-21T07:10:49;99969.94;;;5.87;100.00
25156;BME280;71253;51.496;7.606;2023-11-21T07:15:50;99980.50;;;5.99;100.00
25156;BME280;71253;51.496;7.606;2023-11-21T07:20:52;99987.63;;;6.15;100.00
25156;BME280;71253;51.496;7.606;2023-11-21T07:25:53;99993.63;;;6.16;100.00
25156;BME280;71253;51.496;7.606;2023-11-21T07:30:55;99998.84;;;6.20;100.00
25156;BME280;71253;51.496;7.606;2023-11-21T07:35:57;100009.22;;;6.28;100.00
25156;BME280;71253;51.496;7.606;2023-11-21T07:40:58;100001.69;;;6.39;100.00
25156;BME280;71253;51.496;7.606;2023-11-21T07:46:01;100017.25;;;6.46;100.00
25156;BME280;71253;51.496;7.606;2023-11-21T07:51:03;100009.78;;;6.62;100.00
25156;BME280;71253;51.496;7.606;2023-11-21T07:56:08;100011.72;;;6.78;100.00
25156;BME280;71253;51.496;7.606;2023-11-21T08:01:10;100016.94;;;6.82;100.00
25156;BME280;71253;51.496;7.606;2023-11-21T08:06:12;100012.84;;;6.95;100.00
25156;BME280;71253;51.496;7.606;2023-11-21T08:11:13;100018.09;;;7.03;100.00
25156;BME280;71253;51.496;7.606;2023-11-21T08:16:15;100022.72;;;7.27;100.00
25156;BME280;71253;51.496;7.606;2023-11-21T08:21:17;100031.34;;;7.32;100.00
25156;BME280;71253;51.496;7.606;2023-11-21T08:26:18;100053.66;;;7.33;100.00
25156;BME280;71253;51.496;7.606;2023-11-21T08:31:26;100069.94;;;7.29;100.00
25156;BME280;71253;51.496;7.606;2023-11-21T08:36:27;100068.31;;;7.37;100.00
25156;BME280;71253;51.496;7.606;2023-11-21T08:41:29;100075.19;;;7.36;100.00
25156;BME280;71253;51.496;7.606;2023-11-21T08:46:30;100077.47;;;7.17;100.00
25156;BME280;71253;51.496;7.606;2023-11-21T08:51:32;100089.31;;;7.05;100.00
25156;BME280;71253;51.496;7.606;2023-11-21T08:56:34;100104.97;;;7.21;100.00
25156;BME280;71253;51.496;7.606;2023-11-21T09:01:35;100109.31;;;7.23;100.00
25156;BME280;71253;51.496;7.606;2023-11-21T09:06:37;100115.38;;;7.28;100.00
25156;BME280;71253;51.496;7.606;2023-11-21T09:11:38;100109.56;;;7.40;100.00
25156;BME280;71253;51.496;7.606;2023-11-21T09:16:40;100116.41;;;7.40;100.00
25156;BME280;71253;51.496;7.606;2023-11-21T09:21:42;100120.63;;;7.34;100.00
25156;BME280;71253;51.496;7.606;2023-11-21T09:26:43;100128.59;;;7.51;100.00
25156;BME280;71253;51.496;7.606;2023-11-21T09:31:45;100128.69;;;7.59;100.00
25156;BME280;71253;51.496;7.606;2023-11-21T09:36:47;100134.75;;;7.64;100.00
25156;BME280;71253;51.496;7.606;2023-11-21T09:41:50;100133.25;;;7.81;100.00
25156;BME280;71253;51.496;7.606;2023-11-21T09:46:53;100146.22;;;7.87;100.00
25156;BME280;71253;51.496;7.606;2023-11-21T09:51:55;100152.59;;;8.18;100.00
25156;BME280;71253;51.496;7.606;2023-11-21T09:56:59;100158.41;;;8.01;100.00
25156;BME280;71253;51.496;7.606;2023-11-21T10:02:00;100157.81;;;8.23;100.00
25156;BME280;71253;51.496;7.606;2023-11-21T10:07:03;100167.00;;;8.00;100.00
25156;BME280;71253;51.496;7.606;2023-11-21T10:12:05;100158.28;;;7.91;100.00
25156;BME280;71253;51.496;7.606;2023-11-21T10:17:08;100154.72;;;7.80;100.00
25156;BME280;71253;51.496;7.606;2023-11-21T10:22:11;100163.44;;;7.90;100.00
25156;BME280;71253;51.496;7.606;2023-11-21T10:27:13;100165.91;;;7.82;100.00
25156;BME280;71253;51.496;7.606;2023-11-21T10:32:14;100163.44;;;7.88;100.00
25156;BME280;71253;51.496;7.606;2023-11-21T10:37:16;100171.03;;;7.79;100.00
25156;BME280;71253;51.496;7.606;2023-11-21T10:42:18;100167.69;;;7.88;100.00
25156;BME280;71253;51.496;7.606;2023-11-21T10:47:20;100171.28;;;7.99;100.00
25156;BME280;71253;51.496;7.606;2023-11-21T10:52:21;100169.84;;;8.23;100.00
25156;BME280;71253;51.496;7.606;2023-11-21T10:57:28;100166.34;;;8.19;100.00
25156;BME280;71253;51.496;7.606;2023-11-21T11:02:30;100182.78;;;8.27;100.00
25156;BME280;71253;51.496;7.606;2023-11-21T11:07:32;100197.31;;;8.21;100.00
25156;BME280;71253;51.496;7.606;2023-11-21T11:12:36;100206.75;;;8.18;100.00
25156;BME280;71253;51.496;7.606;2023-11-21T11:17:38;100211.53;;;7.91;100.00
25156;BME280;71253;51.496;7.606;2023-11-21T11:22:45;100218.34;;;7.87;100.00
25156;BME280;71253;51.496;7.606;2023-11-21T11:38:07;100214.06;;;7.88;100.00
25156;BME280;71253;51.496;7.606;2023-11-21T11:43:09;100217.34;;;7.76;100.00
25156;BME280;71253;51.496;7.606;2023-11-21T11:48:11;100212.13;;;7.72;100.00
25156;BME280;71253;51.496;7.606;2023-11-21T11:53:14;100209.50;;;7.69;100.00
25156;BME280;71253;51.496;7.606;2023-11-21T11:58:16;100216.28;;;7.62;100.00
25156;BME280;71253;51.496;7.606;2023-11-21T12:03:17;100230.03;;;7.62;100.00
25156;BME280;71253;51.496;7.606;2023-11-21T12:08:20;100234.22;;;7.56;100.00
25156;BME280;71253;51.496;7.606;2023-11-21T12:13:22;100236.06;;;7.64;100.00
25156;BME280;71253;51.496;7.606;2023-11-21T12:18:24;100240.34;;;7.65;100.00
25156;BME280;71253;51.496;7.606;2023-11-21T12:23:26;100251.31;;;7.52;100.00
25156;BME280;71253;51.496;7.606;2023-11-21T12:28:27;100250.28;;;7.40;100.00
25156;BME280;71253;51.496;7.606;2023-11-21T12:33:29;100260.59;;;7.43;100.00
25156;BME280;71253;51.496;7.606;2023-11-21T12:38:34;100269.22;;;7.45;100.00
25156;BME280;71253;51.496;7.606;2023-11-21T12:43:36;100272.72;;;7.48;100.00
25156;BME280;71253;51.496;7.606;2023-11-21T12:48:38;100268.34;;;7.44;100.00
25156;BME280;71253;51.496;7.606;2023-11-21T12:53:40;100276.91;;;7.42;100.00
25156;BME280;71253;51.496;7.606;2023-11-21T12:58:45;100274.25;;;7.38;100.00
25156;BME280;71253;51.496;7.606;2023-11-21T13:03:47;100277.66;;;7.34;100.00
25156;BME280;71253;51.496;7.606;2023-11-21T13:08:49;100282.97;;;7.45;100.00
25156;BME280;71253;51.496;7.606;2023-11-21T13:13:51;100297.38;;;7.34;100.00
25156;BME280;71253;51.496;7.606;2023-11-21T13:18:53;100298.06;;;7.25;100.00
25156;BME280;71253;51.496;7.606;2023-11-21T13:23:54;100322.97;;;7.28;100.00
25156;BME280;71253;51.496;7.606;2023-11-21T13:28:56;100324.78;;;7.32;100.00
25156;BME280;71253;51.496;7.606;2023-11-21T13:33:57;100332.25;;;7.18;100.00
25156;BME280;71253;51.496;7.606;2023-11-21T13:39:03;100340.88;;;7.22;100.00
25156;BME280;71253;51.496;7.606;2023-11-21T13:44:05;100332.25;;;7.18;100.00
25156;BME280;71253;51.496;7.606;2023-11-21T13:49:07;100340.19;;;7.30;100.00
25156;BME280;71253;51.496;7.606;2023-11-21T13:54:08;100347.72;;;7.20;100.00
25156;BME280;71253;51.496;7.606;2023-11-21T13:59:10;100352.84;;;7.18;100.00
25156;BME280;71253;51.496;7.606;2023-11-21T14:04:12;100360.53;;;7.17;100.00
25156;BME280;71253;51.496;7.606;2023-11-21T14:09:18;100366.47;;;7.13;100.00
25156;BME280;71253;51.496;7.606;2023-11-21T14:14:22;100362.13;;;7.11;100.00
25156;BME280;71253;51.496;7.606;2023-11-21T14:19:24;100366.28;;;7.03;100.00
25156;BME280;71253;51.496;7.606;2023-11-21T14:24:26;100368.75;;;6.97;100.00
25156;BME280;71253;51.496;7.606;2023-11-21T14:29:28;100375.31;;;6.84;100.00
25156;BME280;71253;51.496;7.606;2023-11-21T14:34:29;100381.38;;;6.87;100.00
25156;BME280;71253;51.496;7.606;2023-11-21T14:39:31;100382.91;;;6.78;100.00
25156;BME280;71253;51.496;7.606;2023-11-21T14:44:32;100380.22;;;6.72;100.00
25156;BME280;71253;51.496;7.606;2023-11-21T14:49:34;100410.81;;;6.58;100.00
25156;BME280;71253;51.496;7.606;2023-11-21T14:54:36;100418.50;;;6.58;100.00
25156;BME280;71253;51.496;7.606;2023-11-21T14:59:43;100427.00;;;6.56;100.00
25156;BME280;71253;51.496;7.606;2023-11-21T15:04:45;100439.88;;;6.56;100.00
25156;BME280;71253;51.496;7.606;2023-11-21T15:09:46;100459.47;;;6.51;100.00
25156;BME280;71253;51.496;7.606;2023-11-21T15:14:50;100467.03;;;6.45;100.00
25156;BME280;71253;51.496;7.606;2023-11-21T15:19:53;100472.94;;;6.41;100.00
25156;BME280;71253;51.496;7.606;2023-11-21T15:24:55;100475.22;;;6.28;100.00
25156;BME280;71253;51.496;7.606;2023-11-21T15:29:56;100486.03;;;6.15;100.00
25156;BME280;71253;51.496;7.606;2023-11-21T15:34:58;100485.19;;;6.16;100.00
25156;BME280;71253;51.496;7.606;2023-11-21T15:39:59;100498.81;;;6.14;100.00
25156;BME280;71253;51.496;7.606;2023-11-21T15:45:02;100510.69;;;6.09;100.00
25156;BME280;71253;51.496;7.606;2023-11-21T15:50:04;100522.06;;;5.87;100.00
25156;BME280;71253;51.496;7.606;2023-11-21T15:55:06;100531.44;;;5.85;100.00
25156;BME280;71253;51.496;7.606;2023-11-21T16:00:08;100542.56;;;5.85;100.00
25156;BME280;71253;51.496;7.606;2023-11-21T16:05:10;100551.97;;;5.85;100.00
25156;BME280;71253;51.496;7.606;2023-11-21T16:10:11;100557.84;;;5.80;100.00
25156;BME280;71253;51.496;7.606;2023-11-21T16:15:13;100566.81;;;5.65;100.00
25156;BME280;71253;51.496;7.606;2023-11-21T16:20:14;100581.75;;;5.48;100.00
25156;BME280;71253;51.496;7.606;2023-11-21T16:25:16;100584.59;;;5.28;100.00
25156;BME280;71253;51.496;7.606;2023-11-21T16:30:17;100597.00;;;5.15;100.00
25156;BME280;71253;51.496;7.606;2023-11-21T16:35:19;100610.66;;;5.14;100.00
25156;BME280;71253;51.496;7.606;2023-11-21T16:40:20;100615.94;;;5.18;100.00
25156;BME280;71253;51.496;7.606;2023-11-21T16:45:22;100626.22;;;5.20;100.00
25156;BME280;71253;51.496;7.606;2023-11-21T16:50:24;100648.50;;;5.21;100.00
25156;BME280;71253;51.496;7.606;2023-11-21T16:55:25;100657.88;;;5.20;100.00
25156;BME280;71253;51.496;7.606;2023-11-21T17:00:27;100663.09;;;5.22;100.00
25156;BME280;71253;51.496;7.606;2023-11-21T17:05:29;100680.94;;;5.19;100.00
25156;BME280;71253;51.496;7.606;2023-11-21T17:10:30;100681.63;;;5.13;100.00
25156;BME280;71253;51.496;7.606;2023-11-21T17:15:32;100688.19;;;5.05;100.00
25156;BME280;71253;51.496;7.606;2023-11-21T17:20:33;100703.38;;;4.99;100.00
25156;BME280;71253;51.496;7.606;2023-11-21T17:25:35;100711.69;;;4.92;100.00
25156;BME280;71253;51.496;7.606;2023-11-21T17:30:37;100721.03;;;4.90;100.00
25156;BME280;71253;51.496;7.606;2023-11-21T17:35:39;100719.22;;;4.87;100.00
25156;BME280;71253;51.496;7.606;2023-11-21T17:40:41;100738.00;;;4.86;100.00
25156;BME280;71253;51.496;7.606;2023-11-21T17:45:43;100760.00;;;4.80;100.00
25156;BME280;71253;51.496;7.606;2023-11-21T17:50:45;100773.66;;;4.79;100.00
25156;BME280;71253;51.496;7.606;2023-11-21T17:55:47;100789.72;;;4.74;100.00
25156;BME280;71253;51.496;7.606;2023-11-21T18:00:48;100785.25;;;4.69;100.00
25156;BME280;71253;51.496;7.606;2023-11-21T18:05:50;100794.69;;;4.70;100.00
25156;BME280;71253;51.496;7.606;2023-11-21T18:10:51;100794.53;;;4.65;100.00
25156;BME280;71253;51.496;7.606;2023-11-21T18:15:53;100797.00;;;4.62;100.00
25156;BME280;71253;51.496;7.606;2023-11-21T18:20:54;100802.00;;;4.59;100.00
25156;BME280;71253;51.496;7.606;2023-11-21T18:25:56;100822.28;;;4.53;100.00
25156;BME280;71253;51.496;7.606;2023-11-21T18:30:58;100815.31;;;4.51;100.00
25156;BME280;71253;51.496;7.606;2023-11-21T18:35:59;100825.53;;;4.49;100.00
25156;BME280;71253;51.496;7.606;2023-11-21T18:41:01;100834.03;;;4.48;100.00
25156;BME280;71253;51.496;7.606;2023-11-21T18:46:02;100838.13;;;4.43;100.00
25156;BME280;71253;51.496;7.606;2023-11-21T18:51:04;100848.31;;;4.41;100.00
25156;BME280;71253;51.496;7.606;2023-11-21T18:56:06;100853.38;;;4.40;100.00
25156;BME280;71253;51.496;7.606;2023-11-21T19:01:07;100864.38;;;4.37;100.00
25156;BME280;71253;51.496;7.606;2023-11-21T19:06:09;100873.72;;;4.35;100.00
25156;BME280;71253;51.496;7.606;2023-11-21T19:11:10;100872.72;;;4.32;100.00
25156;BME280;71253;51.496;7.606;2023-11-21T19:16:12;100879.41;;;4.28;100.00
25156;BME280;71253;51.496;7.606;2023-11-21T19:21:14;100882.78;;;4.27;100.00
25156;BME280;71253;51.496;7.606;2023-11-21T19:26:16;100892.03;;;4.23;100.00
25156;BME280;71253;51.496;7.606;2023-11-21T19:31:19;100896.28;;;4.23;100.00
25156;BME280;71253;51.496;7.606;2023-11-21T19:36:21;100899.91;;;4.28;100.00
25156;BME280;71253;51.496;7.606;2023-11-21T19:41:22;100910.66;;;4.40;100.00
25156;BME280;71253;51.496;7.606;2023-11-21T19:46:24;100911.75;;;4.47;100.00
25156;BME280;71253;51.496;7.606;2023-11-21T19:51:26;100911.84;;;4.50;100.00
25156;BME280;71253;51.496;7.606;2023-11-21T19:56:27;100916.97;;;4.50;100.00
25156;BME280;71253;51.496;7.606;2023-11-21T20:01:29;100920.41;;;4.51;100.00
25156;BME280;71253;51.496;7.606;2023-11-21T20:06:30;100931.44;;;4.48;100.00
25156;BME280;71253;51.496;7.606;2023-11-21T20:11:32;100931.69;;;4.33;100.00
25156;BME280;71253;51.496;7.606;2023-11-21T20:16:38;100929.13;;;4.33;100.00
25156;BME280;71253;51.496;7.606;2023-11-21T20:21:40;100937.63;;;4.32;100.00
25156;BME280;71253;51.496;7.606;2023-11-21T20:26:42;100941.03;;;4.31;100.00
25156;BME280;71253;51.496;7.606;2023-11-21T20:31:43;100946.09;;;4.30;100.00
25156;BME280;71253;51.496;7.606;2023-11-21T20:36:48;100960.50;;;4.28;100.00
25156;BME280;71253;51.496;7.606;2023-11-21T20:41:50;100961.97;;;4.21;100.00
25156;BME280;71253;51.496;7.606;2023-11-21T20:46:51;100968.72;;;4.19;100.00
25156;BME280;71253;51.496;7.606;2023-11-21T20:51:53;100978.00;;;4.17;100.00
25156;BME280;71253;51.496;7.606;2023-11-21T20:56:55;100992.56;;;4.18;100.00
25156;BME280;71253;51.496;7.606;2023-11-21T21:01:56;100995.06;;;4.16;100.00
25156;BME280;71253;51.496;7.606;2023-11-21T21:06:58;101000.09;;;4.13;100.00
25156;BME280;71253;51.496;7.606;2023-11-21T21:11:59;100995.00;;;4.15;100.00
25156;BME280;71253;51.496;7.606;2023-11-21T21:17:01;100996.94;;;4.20;100.00
25156;BME280;71253;51.496;7.606;2023-11-21T21:22:03;101002.06;;;4.20;100.00
25156;BME280;71253;51.496;7.606;2023-11-21T21:27:04;101008.78;;;4.18;100.00
25156;BME280;71253;51.496;7.606;2023-11-21T21:32:06;101012.19;;;4.17;100.00
25156;BME280;71253;51.496;7.606;2023-11-21T21:37:07;101019.25;;;4.23;100.00
25156;BME280;71253;51.496;7.606;2023-11-21T21:42:09;101018.50;;;4.26;100.00
25156;BME280;71253;51.496;7.606;2023-11-21T21:47:10;101022.56;;;4.20;100.00
25156;BME280;71253;51.496;7.606;2023-11-21T21:52:12;101027.69;;;4.20;100.00
25156;BME280;71253;51.496;7.606;2023-11-21T21:57:13;101036.38;;;4.24;100.00
25156;BME280;71253;51.496;7.606;2023-11-21T22:02:15;101043.09;;;4.22;100.00
25156;BME280;71253;51.496;7.606;2023-11-21T22:07:17;101063.59;;;4.22;100.00
25156;BME280;71253;51.496;7.606;2023-11-21T22:12:19;101065.84;;;4.14;100.00
25156;BME280;71253;51.496;7.606;2023-11-21T22:17:21;101078.56;;;4.13;100.00
25156;BME280;71253;51.496;7.606;2023-11-21T22:22:22;101088.66;;;4.08;100.00
25156;BME280;71253;51.496;7.606;2023-11-21T22:27:24;101098.81;;;4.07;100.00
25156;BME280;71253;51.496;7.606;2023-11-21T22:32:27;101100.38;;;4.03;100.00
25156;BME280;71253;51.496;7.606;2023-11-21T22:37:28;101104.69;;;4.04;100.00
25156;BME280;71253;51.496;7.606;2023-11-21T22:42:30;101103.72;;;4.02;100.00
25156;BME280;71253;51.496;7.606;2023-11-21T22:47:31;101092.56;;;4.00;100.00
25156;BME280;71253;51.496;7.606;2023-11-21T22:52:33;101097.69;;;4.00;100.00
25156;BME280;71253;51.496;7.606;2023-11-21T22:57:35;101093.06;;;3.91;100.00
25156;BME280;71253;51.496;7.606;2023-11-21T23:02:37;101086.66;;;3.82;100.00
25156;BME280;71253;51.496;7.606;2023-11-21T23:07:38;101095.53;;;3.71;100.00
25156;BME280;71253;51.496;7.606;2023-11-21T23:12:40;101113.91;;;3.62;100.00
25156;BME280;71253;51.496;7.606;2023-11-21T23:17:41;101111.13;;;3.57;100.00
25156;BME280;71253;51.496;7.606;2023-11-21T23:22:43;101104.28;;;3.56;100.00
25156;BME280;71253;51.496;7.606;2023-11-21T23:27:44;101108.72;;;3.60;100.00
25156;BME280;71253;51.496;7.606;2023-11-21T23:32:46;101114.06;;;3.65;100.00
25156;BME280;71253;51.496;7.606;2023-11-21T23:37:47;101114.84;;;3.64;100.00
25156;BME280;71253;51.496;7.606;2023-11-21T23:42:49;101128.31;;;3.60;100.00
25156;BME280;71253;51.496;7.606;2023-11-21T23:47:51;101142.00;;;3.60;100.00
25156;BME280;71253;51.496;7.606;2023-11-21T23:52:52;101153.16;;;3.62;100.00
25156;BME280;71253;51.496;7.606;2023-11-21T23:57:54;101157.41;;;3.62;100.00
